Time;durP1;ratioP1;P1;durP2;ratioP2;P2;SDS_P1;SDS_P2;PMS_P1;PMS_P2;Temp;Humidity;BMP_temperature;BMP_pressure;BME280_temperature;BME280_humidity;BME280_pressure;Samples;Min_cycle;Max_cycle;Signal;HPM_P1;HPM_P2
2022/12/08 00:00:23;;;;;;;;;;;2.10;91.30;;;;;;5075483;28;19937;-88
2022/12/08 00:02:48;;;;;;;;;;;2.20;91.50;;;;;;5084964;28;19946;-88
2022/12/08 00:10:43;;;;;;;;;;;2.20;91.70;;;;;;5095794;28;19957;-89
2022/12/08 00:13:09;;;;;;;;;;;2.40;91.70;;;;;;5095166;28;20573;-88
2022/12/08 00:15:34;;;;;;;;;;;2.50;91.40;;;;;;5095284;28;20044;-88
2022/12/08 00:18:00;;;;;;;;;;;2.50;91.30;;;;;;5095437;28;20028;-88
2022/12/08 00:20:26;;;;;;;;;;;2.50;90.90;;;;;;5095099;28;20299;-88
2022/12/08 00:22:51;;;;;;;;;;;2.50;90.30;;;;;;5095046;28;20308;-88
2022/12/08 00:25:17;;;;;;;;;;;2.40;90.10;;;;;;5095083;28;19948;-88
2022/12/08 00:27:42;;;;;;;;;;;2.20;90.20;;;;;;5095053;28;19946;-89
2022/12/08 00:30:08;;;;;;;;;;;2.30;90.50;;;;;;5095134;28;19985;-88
2022/12/08 00:32:33;;;;;;;;;;;2.30;90.50;;;;;;5094805;28;19998;-89
2022/12/08 00:34:59;;;;;;;;;;;2.20;90.50;;;;;;5095080;28;19940;-88
2022/12/08 00:37:24;;;;;;;;;;;2.30;90.50;;;;;;5095054;28;19948;-88
2022/12/08 00:39:50;;;;;;;;;;;2.30;90.40;;;;;;5094968;28;20308;-88
2022/12/08 00:42:16;;;;;;;;;;;2.30;90.40;;;;;;5076528;28;19944;-88
2022/12/08 00:44:43;;;;;;;;;;;2.30;90.20;;;;;;5094862;28;19946;-88
2022/12/08 00:47:08;;;;;;;;;;;2.20;90.40;;;;;;5094876;28;20024;-89
2022/12/08 00:49:34;;;;;;;;;;;2.20;90.60;;;;;;5094698;28;19973;-89
2022/12/08 00:51:59;;;;;;;;;;;2.30;90.50;;;;;;5094566;28;20517;-88
2022/12/08 00:54:25;;;;;;;;;;;2.40;90.40;;;;;;5094424;28;19953;-89
2022/12/08 00:56:51;;;;;;;;;;;2.40;90.50;;;;;;5094633;28;19945;-88
2022/12/08 00:59:16;;;;;;;;;;;2.40;90.30;;;;;;5094566;28;19952;-88
2022/12/08 01:01:45;;;;;;;;;;;2.50;90.40;;;;;;5076399;28;19942;-88
2022/12/08 01:04:14;;;;;;;;;;;2.70;90.40;;;;;;5094239;28;19947;-88
2022/12/08 01:06:40;;;;;;;;;;;2.70;89.10;;;;;;5094700;28;19946;-88
2022/12/08 01:09:06;;;;;;;;;;;2.50;88.90;;;;;;5094112;28;20460;-88
2022/12/08 01:11:32;;;;;;;;;;;2.60;89.60;;;;;;5094287;28;20017;-89
2022/12/08 01:13:57;;;;;;;;;;;2.60;89.60;;;;;;5094327;28;20339;-89
2022/12/08 01:16:24;;;;;;;;;;;2.70;89.50;;;;;;5094321;28;20013;-89
2022/12/08 01:18:50;;;;;;;;;;;2.70;88.70;;;;;;5094287;28;19989;-87
2022/12/08 01:21:16;;;;;;;;;;;2.80;88.40;;;;;;5093794;28;19976;-88
2022/12/08 01:23:41;;;;;;;;;;;2.70;87.90;;;;;;5094149;28;20032;-88
2022/12/08 01:26:07;;;;;;;;;;;2.50;88.60;;;;;;5094036;28;19942;-88
2022/12/08 01:28:33;;;;;;;;;;;2.50;88.50;;;;;;5094079;28;20005;-89
2022/12/08 01:30:59;;;;;;;;;;;2.50;88.60;;;;;;5093696;28;20048;-89
2022/12/08 01:33:25;;;;;;;;;;;2.40;88.40;;;;;;5093943;28;20387;-88
2022/12/08 01:35:51;;;;;;;;;;;2.40;89.00;;;;;;5093846;28;19940;-88
2022/12/08 01:38:16;;;;;;;;;;;2.30;88.70;;;;;;5093377;28;19939;-88
2022/12/08 01:40:42;;;;;;;;;;;2.30;88.60;;;;;;5093670;28;19943;-88
2022/12/08 01:43:13;;;;;;;;;;;2.20;88.90;;;;;;5093810;28;19946;-88
2022/12/08 01:45:38;;;;;;;;;;;2.20;89.20;;;;;;5093698;28;19948;-88
2022/12/08 01:48:10;;;;;;;;;;;2.10;89.30;;;;;;5075300;28;19940;-88
2022/12/08 01:50:37;;;;;;;;;;;2.10;89.50;;;;;;5093715;28;19998;-89
2022/12/08 01:53:08;;;;;;;;;;;2.10;89.40;;;;;;5085196;28;19977;-87
2022/12/08 01:55:36;;;;;;;;;;;2.10;90.30;;;;;;5073548;28;19944;-88
2022/12/08 01:58:06;;;;;;;;;;;2.20;91.00;;;;;;5078799;28;20000;-88
2022/12/08 02:00:31;;;;;;;;;;;2.20;91.20;;;;;;5093474;28;20611;-88
2022/12/08 02:02:58;;;;;;;;;;;2.20;91.10;;;;;;5093479;28;19979;-88
2022/12/08 02:05:25;;;;;;;;;;;2.00;91.00;;;;;;5093432;28;19941;-88
2022/12/08 02:07:51;;;;;;;;;;;2.00;90.70;;;;;;5093148;28;19952;-89
2022/12/08 02:10:19;;;;;;;;;;;1.90;90.60;;;;;;5092966;28;19947;-89
2022/12/08 02:12:45;;;;;;;;;;;1.80;90.80;;;;;;5093473;28;20006;-89
2022/12/08 02:15:11;;;;;;;;;;;1.90;90.80;;;;;;5092671;28;20419;-89
2022/12/08 02:17:43;;;;;;;;;;;2.10;90.50;;;;;;5093300;28;20041;-88
2022/12/08 02:22:38;;;;;;;;;;;2.10;90.10;;;;;;5073458;22;19962;-88
2022/12/08 02:25:10;;;;;;;;;;;2.10;89.70;;;;;;5071081;28;20033;-88
2022/12/08 02:27:54;;;;;;;;;;;2.00;89.20;;;;;;5073040;28;19942;-88
2022/12/08 02:30:19;;;;;;;;;;;1.90;90.20;;;;;;5073238;28;19945;-88
2022/12/08 02:33:07;;;;;;;;;;;1.90;89.90;;;;;;5072846;28;19957;-89
2022/12/08 02:35:43;;;;;;;;;;;1.80;89.60;;;;;;5062836;28;19980;-89
2022/12/08 02:38:27;;;;;;;;;;;1.80;89.90;;;;;;5052902;28;19950;-88
2022/12/08 02:40:56;;;;;;;;;;;1.90;90.10;;;;;;5052809;28;19942;-89
2022/12/08 02:43:26;;;;;;;;;;;2.00;90.10;;;;;;5052785;28;20036;-89
2022/12/08 02:45:54;;;;;;;;;;;2.10;89.80;;;;;;5064554;28;19989;-89
2022/12/08 02:48:19;;;;;;;;;;;2.10;89.60;;;;;;5072816;28;19963;-89
2022/12/08 02:50:45;;;;;;;;;;;2.00;89.20;;;;;;5072418;28;20322;-89
2022/12/08 02:53:10;;;;;;;;;;;2.00;89.40;;;;;;5072567;28;19962;-88
2022/12/08 02:56:05;;;;;;;;;;;2.00;89.40;;;;;;5044868;28;19987;-89
2022/12/08 02:58:31;;;;;;;;;;;2.10;89.20;;;;;;5043086;28;19949;-88
2022/12/08 03:01:13;;;;;;;;;;;2.00;88.60;;;;;;5052741;28;20352;-88
2022/12/08 03:03:39;;;;;;;;;;;2.10;88.60;;;;;;5073216;28;19987;-89
2022/12/08 03:06:05;;;;;;;;;;;2.10;88.60;;;;;;5076535;28;19937;-88
2022/12/08 03:08:46;;;;;;;;;;;2.10;88.80;;;;;;5076467;28;19951;-88
2022/12/08 03:11:44;;;;;;;;;;;2.00;88.70;;;;;;5074659;28;20060;-88
2022/12/08 03:14:12;;;;;;;;;;;1.90;88.70;;;;;;5033279;28;19950;-88
2022/12/08 03:16:40;;;;;;;;;;;1.90;88.80;;;;;;5056328;28;19947;-88
2022/12/08 03:19:08;;;;;;;;;;;1.90;89.10;;;;;;5056204;28;19941;-89
2022/12/08 03:21:34;;;;;;;;;;;2.00;89.10;;;;;;5060056;28;19972;-88
2022/12/08 03:24:01;;;;;;;;;;;1.90;89.00;;;;;;5076173;28;19989;-88
2022/12/08 03:26:33;;;;;;;;;;;1.90;89.00;;;;;;5076078;28;19937;-89
2022/12/08 03:28:59;;;;;;;;;;;2.00;88.70;;;;;;5076041;28;19940;-89
2022/12/08 03:31:26;;;;;;;;;;;1.90;88.70;;;;;;5067558;28;20010;-89
2022/12/08 03:33:53;;;;;;;;;;;1.80;88.60;;;;;;5056229;28;19934;-89
2022/12/08 03:36:19;;;;;;;;;;;1.70;88.80;;;;;;5055902;28;19945;-89
2022/12/08 03:38:45;;;;;;;;;;;1.70;89.30;;;;;;5055933;28;20030;-89
2022/12/08 03:41:17;;;;;;;;;;;1.80;89.20;;;;;;5061676;28;19949;-89
2022/12/08 03:43:44;;;;;;;;;;;1.60;89.30;;;;;;5075776;28;19938;-89
2022/12/08 03:46:09;;;;;;;;;;;1.60;89.50;;;;;;5075763;28;19948;-89
2022/12/08 03:48:35;;;;;;;;;;;1.70;89.70;;;;;;5075763;28;19937;-89
2022/12/08 03:51:00;;;;;;;;;;;1.70;89.50;;;;;;5039144;28;20043;-89
2022/12/08 03:53:26;;;;;;;;;;;1.80;89.60;;;;;;5055502;28;20028;-88
2022/12/08 03:55:52;;;;;;;;;;;1.80;89.40;;;;;;5055622;28;20024;-89
2022/12/08 03:58:17;;;;;;;;;;;1.90;89.20;;;;;;5055572;28;19981;-89
2022/12/08 04:00:43;;;;;;;;;;;1.90;89.00;;;;;;5065161;28;19952;-88
2022/12/08 04:03:08;;;;;;;;;;;1.80;88.60;;;;;;5055492;28;19944;-88
2022/12/08 04:05:34;;;;;;;;;;;2.00;88.60;;;;;;5055378;28;20393;-89
2022/12/08 04:08:00;;;;;;;;;;;1.90;87.90;;;;;;5055342;28;20324;-88
2022/12/08 04:10:25;;;;;;;;;;;1.80;87.80;;;;;;5067948;28;19949;-88
2022/12/08 04:12:51;;;;;;;;;;;1.80;88.10;;;;;;5057164;28;20363;-89
2022/12/08 04:15:16;;;;;;;;;;;1.80;87.80;;;;;;5074930;28;19937;-88
2022/12/08 04:17:42;;;;;;;;;;;1.60;88.30;;;;;;5075212;28;20400;-89
2022/12/08 04:20:08;;;;;;;;;;;1.70;88.30;;;;;;5046698;28;20356;-88
2022/12/08 04:22:33;;;;;;;;;;;1.80;88.30;;;;;;5033705;28;20002;-88
2022/12/08 04:24:59;;;;;;;;;;;1.60;88.20;;;;;;5035163;28;20042;-89
2022/12/08 04:27:24;;;;;;;;;;;1.50;88.90;;;;;;5035139;28;20020;-88
2022/12/08 04:29:50;;;;;;;;;;;1.50;88.80;;;;;;5039110;28;20315;-89
2022/12/08 04:32:15;;;;;;;;;;;1.50;88.50;;;;;;5034841;28;19952;-89
2022/12/08 04:34:41;;;;;;;;;;;1.50;88.70;;;;;;5033673;28;19942;-89
2022/12/08 04:37:06;;;;;;;;;;;1.60;89.10;;;;;;5034876;28;19964;-88
2022/12/08 04:39:32;;;;;;;;;;;1.60;89.00;;;;;;5039250;28;19942;-89
2022/12/08 04:41:57;;;;;;;;;;;1.50;88.70;;;;;;5054771;28;20046;-89
2022/12/08 04:44:23;;;;;;;;;;;1.40;88.90;;;;;;5054650;28;20037;-88
2022/12/08 04:46:48;;;;;;;;;;;1.30;89.20;;;;;;5054654;28;20042;-88
2022/12/08 04:49:14;;;;;;;;;;;1.20;89.80;;;;;;5051946;28;19945;-88
2022/12/08 04:51:40;;;;;;;;;;;1.20;90.50;;;;;;5033211;28;19970;-88
2022/12/08 04:54:05;;;;;;;;;;;1.20;90.70;;;;;;5034471;28;19938;-88
2022/12/08 04:56:31;;;;;;;;;;;1.30;90.70;;;;;;5034536;28;20021;-88
2022/12/08 04:58:56;;;;;;;;;;;1.30;90.70;;;;;;5034541;28;19938;-89
2022/12/08 05:01:22;;;;;;;;;;;1.30;90.50;;;;;;5053545;28;19945;-89
2022/12/08 05:03:47;;;;;;;;;;;1.40;90.60;;;;;;5054355;28;20409;-89
2022/12/08 05:06:13;;;;;;;;;;;1.40;90.60;;;;;;5054249;28;20023;-88
2022/12/08 05:08:38;;;;;;;;;;;1.40;90.70;;;;;;5054284;28;19942;-88
2022/12/08 05:11:05;;;;;;;;;;;1.40;90.80;;;;;;5039930;28;20001;-88
2022/12/08 05:13:31;;;;;;;;;;;1.40;91.10;;;;;;5034102;28;19947;-88
2022/12/08 05:16:09;;;;;;;;;;;1.40;91.30;;;;;;5034454;28;20051;-88
2022/12/08 05:18:36;;;;;;;;;;;1.40;91.40;;;;;;5034175;28;19959;-88
2022/12/08 05:21:01;;;;;;;;;;;1.30;91.40;;;;;;5056605;28;19981;-88
2022/12/08 05:23:27;;;;;;;;;;;1.30;91.40;;;;;;5073907;28;19946;-88
2022/12/08 05:25:52;;;;;;;;;;;1.30;91.30;;;;;;5073428;28;19937;-88
2022/12/08 05:28:18;;;;;;;;;;;1.30;91.30;;;;;;5073620;28;19940;-87
2022/12/08 05:30:43;;;;;;;;;;;1.30;91.20;;;;;;5059844;28;19957;-89
2022/12/08 05:33:09;;;;;;;;;;;1.30;90.80;;;;;;5053646;28;20069;-88
2022/12/08 05:35:35;;;;;;;;;;;1.20;90.70;;;;;;5053705;28;20288;-88
2022/12/08 05:38:00;;;;;;;;;;;1.20;90.90;;;;;;5053696;28;19946;-88
2022/12/08 05:40:26;;;;;;;;;;;1.20;90.80;;;;;;5064381;28;20412;-88
2022/12/08 05:42:52;;;;;;;;;;;1.30;90.70;;;;;;5073583;28;19941;-88
2022/12/08 05:45:17;;;;;;;;;;;1.30;90.60;;;;;;5073508;28;19938;-88
2022/12/08 05:47:43;;;;;;;;;;;1.30;90.80;;;;;;5073440;28;19943;-88
2022/12/08 05:50:08;;;;;;;;;;;1.30;90.70;;;;;;5046959;28;19984;-88
2022/12/08 05:52:34;;;;;;;;;;;1.40;90.40;;;;;;5053164;28;19964;-88
2022/12/08 05:54:59;;;;;;;;;;;1.50;90.10;;;;;;5053318;28;19950;-88
2022/12/08 05:57:25;;;;;;;;;;;1.50;90.00;;;;;;5053287;28;19941;-89
2022/12/08 05:59:50;;;;;;;;;;;1.50;89.90;;;;;;5053702;28;19953;-89
2022/12/08 06:02:16;;;;;;;;;;;1.40;89.90;;;;;;5053262;28;19938;-88
2022/12/08 06:04:42;;;;;;;;;;;1.40;90.10;;;;;;5053240;28;19942;-88
2022/12/08 06:07:07;;;;;;;;;;;1.30;89.90;;;;;;5053198;28;19936;-88
2022/12/08 06:09:33;;;;;;;;;;;1.20;90.20;;;;;;5069839;28;19951;-88
2022/12/08 06:11:59;;;;;;;;;;;1.20;90.60;;;;;;5073102;28;19963;-88
2022/12/08 06:14:25;;;;;;;;;;;1.20;90.40;;;;;;5055257;28;19944;-88
2022/12/08 06:16:50;;;;;;;;;;;1.10;90.50;;;;;;5064913;28;19945;-89
2022/12/08 06:19:16;;;;;;;;;;;1.00;90.50;;;;;;5052971;28;20391;-88
2022/12/08 06:21:42;;;;;;;;;;;1.20;91.30;;;;;;5052896;28;19945;-89
2022/12/08 06:24:07;;;;;;;;;;;1.20;91.10;;;;;;5053035;28;19937;-88
2022/12/08 06:26:34;;;;;;;;;;;1.20;91.20;;;;;;5057887;28;20398;-88
2022/12/08 06:29:00;;;;;;;;;;;1.30;91.40;;;;;;5073035;28;20399;-88
2022/12/08 06:31:26;;;;;;;;;;;1.20;91.30;;;;;;5072935;28;20073;-88
2022/12/08 06:33:52;;;;;;;;;;;1.10;91.30;;;;;;5072936;28;19939;-88
2022/12/08 06:36:20;;;;;;;;;;;1.00;91.50;;;;;;5051496;28;20307;-88
2022/12/08 06:38:45;;;;;;;;;;;1.00;91.60;;;;;;5055736;28;20407;-88
2022/12/08 06:41:11;;;;;;;;;;;1.00;91.80;;;;;;5057042;28;20004;-89
2022/12/08 06:43:37;;;;;;;;;;;0.90;92.10;;;;;;5057847;28;20000;-89
2022/12/08 06:46:04;;;;;;;;;;;1.00;92.00;;;;;;5057141;28;20038;-89
2022/12/08 06:48:29;;;;;;;;;;;1.00;91.80;;;;;;5056862;28;19948;-88
2022/12/08 06:50:55;;;;;;;;;;;1.10;91.80;;;;;;5056877;28;19938;-89
2022/12/08 06:53:20;;;;;;;;;;;1.20;91.70;;;;;;5070658;28;20370;-88
2022/12/08 06:55:50;;;;;;;;;;;1.10;91.70;;;;;;5076716;28;20397;-88
2022/12/08 06:58:15;;;;;;;;;;;1.00;91.60;;;;;;5076762;28;19978;-88
2022/12/08 07:00:41;;;;;;;;;;;1.00;91.60;;;;;;5076952;28;19982;-88
2022/12/08 07:03:07;;;;;;;;;;;1.10;92.10;;;;;;5064149;28;20473;-88
2022/12/08 07:05:33;;;;;;;;;;;1.10;91.90;;;;;;5053589;28;19945;-88
2022/12/08 07:07:59;;;;;;;;;;;1.20;91.50;;;;;;5076562;28;19958;-88
2022/12/08 07:10:24;;;;;;;;;;;1.10;91.60;;;;;;5076465;28;19973;-89
2022/12/08 07:12:50;;;;;;;;;;;1.10;91.60;;;;;;5076273;28;19962;-89
2022/12/08 07:15:15;;;;;;;;;;;1.00;91.80;;;;;;5065161;28;19953;-89
2022/12/08 07:17:41;;;;;;;;;;;1.10;92.00;;;;;;5056292;28;19938;-88
2022/12/08 07:20:07;;;;;;;;;;;1.10;91.80;;;;;;5056227;28;19986;-89
2022/12/08 07:22:32;;;;;;;;;;;1.10;91.70;;;;;;5056020;28;20497;-89
2022/12/08 07:24:58;;;;;;;;;;;1.00;91.30;;;;;;5056177;28;19943;-89
2022/12/08 07:27:23;;;;;;;;;;;0.90;92.10;;;;;;5056133;28;19980;-89
2022/12/08 07:29:49;;;;;;;;;;;1.00;92.20;;;;;;5057152;28;19946;-89
2022/12/08 07:32:14;;;;;;;;;;;1.10;92.10;;;;;;5055856;28;19967;-89
2022/12/08 07:34:40;;;;;;;;;;;1.20;91.90;;;;;;5056066;28;19939;-89
2022/12/08 07:37:05;;;;;;;;;;;1.40;91.90;;;;;;5055727;28;20418;-89
2022/12/08 07:39:31;;;;;;;;;;;1.90;91.70;;;;;;5052827;28;19945;-89
2022/12/08 07:41:56;;;;;;;;;;;2.10;90.40;;;;;;5055313;28;20043;-89
2022/12/08 07:44:22;;;;;;;;;;;2.10;89.70;;;;;;5055720;28;19972;-89
2022/12/08 07:46:47;;;;;;;;;;;2.10;89.00;;;;;;5068372;28;19997;-89
2022/12/08 07:49:13;;;;;;;;;;;1.70;88.00;;;;;;5075042;28;20397;-89
2022/12/08 07:51:38;;;;;;;;;;;1.40;88.00;;;;;;5075632;28;19962;-88
2022/12/08 07:54:04;;;;;;;;;;;1.10;88.80;;;;;;5075585;28;19942;-89
2022/12/08 07:56:29;;;;;;;;;;;0.90;90.20;;;;;;5075642;28;19947;-88
2022/12/08 07:58:55;;;;;;;;;;;0.90;91.10;;;;;;5057611;28;19942;-88
2022/12/08 08:01:24;;;;;;;;;;;0.90;91.60;;;;;;5075523;28;20034;-88
2022/12/08 08:03:50;;;;;;;;;;;0.90;91.80;;;;;;5074767;28;19950;-89
2022/12/08 08:06:16;;;;;;;;;;;1.00;91.80;;;;;;5075477;28;20026;-89
2022/12/08 08:08:41;;;;;;;;;;;1.00;91.70;;;;;;5075408;28;19950;-88
2022/12/08 08:11:07;;;;;;;;;;;0.90;91.60;;;;;;5074652;28;20382;-89
2022/12/08 08:13:33;;;;;;;;;;;0.80;91.90;;;;;;5074935;28;20331;-88
2022/12/08 08:16:05;;;;;;;;;;;0.90;92.10;;;;;;5075215;28;19926;-89
2022/12/08 08:18:31;;;;;;;;;;;0.90;92.20;;;;;;5058045;28;19950;-88
2022/12/08 08:20:57;;;;;;;;;;;0.90;92.30;;;;;;5054689;28;20458;-88
2022/12/08 08:23:22;;;;;;;;;;;0.90;92.40;;;;;;5056284;28;19973;-88
2022/12/08 08:25:48;;;;;;;;;;;0.90;92.50;;;;;;5074560;28;19958;-88
2022/12/08 08:28:14;;;;;;;;;;;1.00;92.50;;;;;;5075039;28;19936;-89
2022/12/08 08:30:40;;;;;;;;;;;1.00;92.50;;;;;;5075014;28;19972;-88
2022/12/08 08:33:05;;;;;;;;;;;1.10;92.50;;;;;;5074882;28;19964;-89
2022/12/08 08:35:32;;;;;;;;;;;1.20;92.40;;;;;;5057034;28;20452;-89
2022/12/08 08:37:57;;;;;;;;;;;1.20;92.50;;;;;;5074868;28;19939;-89
2022/12/08 08:40:23;;;;;;;;;;;1.30;92.50;;;;;;5074739;28;19940;-89
2022/12/08 08:42:48;;;;;;;;;;;1.40;92.60;;;;;;5074793;28;20399;-89
2022/12/08 08:45:14;;;;;;;;;;;1.50;92.70;;;;;;5072012;28;19939;-89
2022/12/08 08:47:39;;;;;;;;;;;1.60;92.70;;;;;;5053600;28;19944;-89
2022/12/08 08:50:05;;;;;;;;;;;1.70;92.70;;;;;;5054561;28;20393;-89
2022/12/08 08:52:31;;;;;;;;;;;1.80;92.70;;;;;;5054371;28;20357;-88
2022/12/08 08:54:56;;;;;;;;;;;2.10;92.80;;;;;;5060006;28;19941;-88
2022/12/08 08:57:22;;;;;;;;;;;2.30;92.10;;;;;;5074400;28;19948;-88
2022/12/08 08:59:47;;;;;;;;;;;2.50;91.60;;;;;;5074185;28;19943;-88
2022/12/08 09:02:17;;;;;;;;;;;2.70;90.50;;;;;;5073258;28;20024;-88
2022/12/08 09:04:43;;;;;;;;;;;2.70;89.50;;;;;;5073927;28;20055;-89
2022/12/08 09:07:08;;;;;;;;;;;2.80;89.40;;;;;;5074119;28;19981;-89
2022/12/08 09:09:34;;;;;;;;;;;2.80;89.40;;;;;;5073455;28;19947;-89
2022/12/08 09:11:59;;;;;;;;;;;2.90;89.20;;;;;;5050470;28;20429;-89
2022/12/08 09:14:26;;;;;;;;;;;2.90;89.10;;;;;;5053975;28;20396;-89
2022/12/08 09:16:52;;;;;;;;;;;3.10;89.20;;;;;;5054266;28;19942;-89
2022/12/08 09:19:17;;;;;;;;;;;3.20;89.10;;;;;;5053993;28;20467;-89
2022/12/08 09:21:43;;;;;;;;;;;3.50;88.90;;;;;;5053739;28;20028;-89
2022/12/08 09:24:14;;;;;;;;;;;3.70;88.40;;;;;;5054087;28;20044;-89
2022/12/08 09:26:40;;;;;;;;;;;3.90;88.00;;;;;;5053638;28;20463;-88
2022/12/08 09:29:06;;;;;;;;;;;3.90;87.70;;;;;;5053746;28;19988;-88
2022/12/08 09:31:31;;;;;;;;;;;3.90;88.10;;;;;;5053660;28;20404;-88
2022/12/08 09:33:58;;;;;;;;;;;3.90;88.70;;;;;;5053797;28;19991;-88
2022/12/08 09:36:24;;;;;;;;;;;3.80;89.20;;;;;;5053159;28;20044;-88
2022/12/08 09:38:50;;;;;;;;;;;3.90;89.30;;;;;;5053402;28;20000;-88
2022/12/08 09:41:22;;;;;;;;;;;4.10;89.20;;;;;;5053647;28;20032;-88
2022/12/08 09:44:00;;;;;;;;;;;4.20;89.50;;;;;;5063502;28;20031;-88
2022/12/08 09:46:27;;;;;;;;;;;4.40;89.60;;;;;;5073549;28;19941;-88
2022/12/08 09:48:54;;;;;;;;;;;4.60;88.90;;;;;;5073487;28;20032;-88
2022/12/08 09:51:24;;;;;;;;;;;4.90;87.00;;;;;;5073393;28;19942;-88
2022/12/08 09:54:02;;;;;;;;;;;4.90;86.20;;;;;;5073453;28;19996;-88
2022/12/08 09:56:31;;;;;;;;;;;4.90;85.80;;;;;;5073634;28;19995;-87
2022/12/08 09:59:00;;;;;;;;;;;4.90;85.90;;;;;;5073352;28;19991;-87
2022/12/08 10:01:27;;;;;;;;;;;5.00;85.60;;;;;;5073281;28;20286;-88
2022/12/08 10:03:56;;;;;;;;;;;5.10;85.20;;;;;;5042074;28;19951;-88
2022/12/08 10:06:24;;;;;;;;;;;5.10;84.70;;;;;;5053489;28;20019;-88
2022/12/08 10:09:02;;;;;;;;;;;5.20;84.30;;;;;;5053203;28;20388;-88
2022/12/08 10:11:34;;;;;;;;;;;5.30;84.50;;;;;;5053065;28;19961;-88
2022/12/08 10:14:03;;;;;;;;;;;5.30;84.90;;;;;;5052765;28;20005;-88
2022/12/08 10:16:31;;;;;;;;;;;5.40;85.30;;;;;;5053107;28;20348;-88
2022/12/08 10:19:01;;;;;;;;;;;5.80;84.90;;;;;;5053106;28;19942;-88
2022/12/08 10:21:27;;;;;;;;;;;6.20;83.60;;;;;;5070603;22;19965;-88
2022/12/08 10:23:58;;;;;;;;;;;6.40;82.50;;;;;;5072070;28;20316;-88
2022/12/08 10:26:24;;;;;;;;;;;6.60;82.10;;;;;;5072889;28;19992;-88
2022/12/08 10:28:49;;;;;;;;;;;6.70;81.70;;;;;;5073033;28;20353;-87
2022/12/08 10:31:16;;;;;;;;;;;6.70;80.80;;;;;;5072936;28;20023;-88
2022/12/08 10:33:42;;;;;;;;;;;6.70;81.80;;;;;;5072737;28;19949;-87
2022/12/08 10:36:09;;;;;;;;;;;6.90;81.90;;;;;;5073164;28;19962;-87
2022/12/08 10:38:35;;;;;;;;;;;6.90;81.10;;;;;;5072981;28;20402;-87
2022/12/08 10:41:09;;;;;;;;;;;6.90;81.80;;;;;;5072646;28;19952;-87
2022/12/08 10:43:36;;;;;;;;;;;6.80;81.00;;;;;;5072529;28;19946;-88
2022/12/08 10:46:12;;;;;;;;;;;6.90;80.90;;;;;;5072806;28;19985;-88
2022/12/08 10:48:46;;;;;;;;;;;6.90;80.80;;;;;;5072852;28;20039;-88
2022/12/08 10:51:20;;;;;;;;;;;7.10;80.50;;;;;;5072706;28;19943;-88
2022/12/08 10:53:46;;;;;;;;;;;7.10;80.20;;;;;;5072551;28;19956;-88
2022/12/08 10:56:14;;;;;;;;;;;7.30;80.30;;;;;;5072691;28;19948;-87
2022/12/08 10:58:41;;;;;;;;;;;7.40;80.60;;;;;;5072805;28;19938;-87
2022/12/08 11:01:15;;;;;;;;;;;7.40;81.40;;;;;;5072785;28;19967;-87
2022/12/08 11:04:00;;;;;;;;;;;7.40;80.60;;;;;;5060650;28;19971;-87
2022/12/08 11:06:30;;;;;;;;;;;7.30;81.00;;;;;;5052500;28;19952;-86
2022/12/08 11:08:57;;;;;;;;;;;7.20;81.20;;;;;;5051354;28;20335;-86
2022/12/08 11:11:36;;;;;;;;;;;7.10;79.70;;;;;;5052532;28;20030;-86
2022/12/08 11:14:05;;;;;;;;;;;7.10;80.60;;;;;;5052366;28;19944;-87
2022/12/08 11:16:31;;;;;;;;;;;7.10;80.70;;;;;;5052460;28;19993;-87
2022/12/08 11:18:57;;;;;;;;;;;7.10;81.10;;;;;;5052548;28;20018;-88
2022/12/08 11:21:30;;;;;;;;;;;7.20;80.80;;;;;;5052346;28;20425;-88
2022/12/08 11:23:55;;;;;;;;;;;7.30;80.00;;;;;;5052416;28;19942;-88
2022/12/08 11:26:31;;;;;;;;;;;7.50;79.80;;;;;;5055935;28;19951;-88
2022/12/08 11:28:56;;;;;;;;;;;7.70;79.30;;;;;;5056222;28;19944;-88
2022/12/08 11:31:33;;;;;;;;;;;7.70;78.40;;;;;;5056287;28;19945;-87
2022/12/08 11:34:00;;;;;;;;;;;7.70;78.40;;;;;;5055875;28;19939;-88
2022/12/08 11:36:27;;;;;;;;;;;7.60;78.10;;;;;;5055969;28;19944;-87
2022/12/08 11:38:57;;;;;;;;;;;7.50;78.40;;;;;;5054638;28;20289;-87
2022/12/08 11:41:32;;;;;;;;;;;7.50;79.10;;;;;;5056161;28;19975;-87
2022/12/08 11:43:57;;;;;;;;;;;7.60;79.10;;;;;;5055441;28;20396;-88
2022/12/08 11:46:29;;;;;;;;;;;7.60;80.10;;;;;;5055849;28;20000;-88
2022/12/08 11:49:00;;;;;;;;;;;7.60;81.10;;;;;;5055791;28;19944;-88
2022/12/08 11:51:29;;;;;;;;;;;7.50;79.70;;;;;;5055694;28;19939;-88
2022/12/08 11:54:10;;;;;;;;;;;7.50;80.70;;;;;;5055533;28;19966;-88
2022/12/08 11:56:37;;;;;;;;;;;7.50;81.30;;;;;;5055729;28;19979;-88
2022/12/08 11:59:32;;;;;;;;;;;7.50;81.60;;;;;;5055871;28;19949;-88
2022/12/08 12:02:01;;;;;;;;;;;7.60;82.10;;;;;;5050999;28;19945;-88
2022/12/08 12:04:53;;;;;;;;;;;8.30;78.30;;;;;;5057559;28;20455;-88
2022/12/08 12:07:25;;;;;;;;;;;8.80;75.80;;;;;;5054003;28;20335;-88
2022/12/08 12:10:09;;;;;;;;;;;9.30;72.90;;;;;;5055140;28;20403;-88
2022/12/08 12:12:43;;;;;;;;;;;9.30;73.90;;;;;;5055248;28;19944;-88
2022/12/08 12:15:12;;;;;;;;;;;8.90;74.60;;;;;;5054051;28;19945;-88
2022/12/08 12:17:44;;;;;;;;;;;8.80;76.50;;;;;;5055326;28;19944;-88
2022/12/08 12:20:30;;;;;;;;;;;8.90;75.70;;;;;;5055222;28;19939;-88
2022/12/08 12:23:07;;;;;;;;;;;9.00;76.20;;;;;;5015441;28;20431;-88
2022/12/08 12:25:34;;;;;;;;;;;9.60;73.70;;;;;;5015706;28;19947;-88
2022/12/08 12:28:02;;;;;;;;;;;10.20;72.40;;;;;;5015413;28;19937;-88
2022/12/08 12:30:47;;;;;;;;;;;10.60;70.00;;;;;;5015379;28;19943;-88
2022/12/08 12:33:14;;;;;;;;;;;10.90;69.30;;;;;;5014304;28;19964;-89
2022/12/08 12:35:41;;;;;;;;;;;11.20;67.70;;;;;;5014882;28;19945;-88
2022/12/08 12:41:00;;;;;;;;;;;11.80;64.20;;;;;;5015425;28;19943;-88
2022/12/08 12:43:31;;;;;;;;;;;11.40;63.20;;;;;;5015105;28;20025;-88
2022/12/08 12:46:15;;;;;;;;;;;11.60;66.00;;;;;;5015054;28;19937;-88
2022/12/08 12:48:41;;;;;;;;;;;11.80;64.10;;;;;;5014962;28;19943;-88
2022/12/08 12:51:25;;;;;;;;;;;11.90;61.30;;;;;;5014943;28;19939;-88
2022/12/08 12:53:51;;;;;;;;;;;12.00;61.70;;;;;;5014753;28;19970;-88
2022/12/08 12:56:47;;;;;;;;;;;11.60;62.60;;;;;;5013590;28;19944;-88
2022/12/08 12:59:31;;;;;;;;;;;10.90;64.90;;;;;;4995592;28;20036;-88
2022/12/08 13:01:57;;;;;;;;;;;10.10;68.40;;;;;;5014800;28;19938;-88
2022/12/08 13:04:31;;;;;;;;;;;9.30;70.50;;;;;;5014714;28;19945;-88
2022/12/08 13:06:57;;;;;;;;;;;8.60;73.10;;;;;;5014644;28;20028;-88
2022/12/08 13:09:26;;;;;;;;;;;8.20;76.20;;;;;;5014639;28;19982;-88
2022/12/08 13:11:54;;;;;;;;;;;8.00;78.00;;;;;;5014536;28;20410;-88
2022/12/08 13:14:25;;;;;;;;;;;7.90;78.60;;;;;;5013252;28;19950;-87
2022/12/08 13:16:53;;;;;;;;;;;7.60;79.60;;;;;;5014416;28;20383;-88
2022/12/08 13:19:20;;;;;;;;;;;7.40;80.60;;;;;;5014449;28;19947;-88
2022/12/08 13:21:45;;;;;;;;;;;7.40;81.60;;;;;;5039854;28;19981;-88
2022/12/08 13:24:31;;;;;;;;;;;7.40;81.80;;;;;;5052655;28;19950;-88
2022/12/08 13:27:03;;;;;;;;;;;7.40;82.30;;;;;;5053950;28;20002;-89
2022/12/08 13:29:32;;;;;;;;;;;7.40;82.60;;;;;;5053935;28;19942;-88
2022/12/08 13:32:01;;;;;;;;;;;7.40;82.70;;;;;;5054073;28;19969;-88
2022/12/08 13:34:40;;;;;;;;;;;7.30;83.60;;;;;;5052429;28;19974;-88
2022/12/08 13:37:15;;;;;;;;;;;7.30;83.60;;;;;;5049967;28;19939;-88
2022/12/08 13:39:52;;;;;;;;;;;7.30;83.70;;;;;;5053727;28;20404;-88
2022/12/08 13:42:18;;;;;;;;;;;7.30;84.00;;;;;;5053692;28;19936;-89
2022/12/08 13:44:49;;;;;;;;;;;7.30;83.70;;;;;;5053601;28;19945;-88
2022/12/08 13:47:18;;;;;;;;;;;7.30;84.00;;;;;;5053005;28;19980;-88
2022/12/08 13:50:05;;;;;;;;;;;7.30;83.80;;;;;;5053526;28;20391;-88
2022/12/08 13:52:35;;;;;;;;;;;7.30;83.50;;;;;;5053361;28;20020;-88
2022/12/08 13:55:02;;;;;;;;;;;7.30;84.20;;;;;;5053347;28;19950;-88
2022/12/08 13:57:32;;;;;;;;;;;7.40;84.50;;;;;;5053451;28;19939;-88
2022/12/08 14:00:05;;;;;;;;;;;7.40;84.40;;;;;;5035535;28;19954;-88
2022/12/08 14:02:34;;;;;;;;;;;7.30;83.30;;;;;;5053024;28;19954;-88
2022/12/08 14:04:59;;;;;;;;;;;7.20;83.60;;;;;;5053314;28;19939;-88
2022/12/08 14:07:25;;;;;;;;;;;7.10;84.60;;;;;;5051976;28;19951;-88
2022/12/08 14:09:51;;;;;;;;;;;7.10;85.00;;;;;;5053100;28;19950;-88
2022/12/08 14:12:22;;;;;;;;;;;7.10;85.20;;;;;;5053128;28;20012;-88
2022/12/08 14:14:49;;;;;;;;;;;7.10;85.30;;;;;;5053174;28;19980;-88
2022/12/08 14:17:17;;;;;;;;;;;7.10;85.20;;;;;;5053182;28;19944;-89
2022/12/08 14:19:44;;;;;;;;;;;7.10;85.50;;;;;;5053197;28;19939;-88
2022/12/08 14:22:13;;;;;;;;;;;7.20;85.20;;;;;;5052934;28;19983;-88
2022/12/08 14:24:39;;;;;;;;;;;7.30;85.10;;;;;;5053112;28;19938;-88
2022/12/08 14:27:07;;;;;;;;;;;7.40;85.00;;;;;;5053316;28;19978;-88
2022/12/08 14:29:36;;;;;;;;;;;7.40;84.60;;;;;;5053011;28;19937;-89
2022/12/08 14:32:03;;;;;;;;;;;7.40;84.40;;;;;;5052901;28;19970;-88
2022/12/08 14:34:29;;;;;;;;;;;7.40;84.00;;;;;;5052771;28;20401;-88
2022/12/08 14:36:54;;;;;;;;;;;7.60;84.00;;;;;;5052988;28;19942;-88
2022/12/08 14:39:20;;;;;;;;;;;7.60;83.30;;;;;;5052954;28;20314;-88
2022/12/08 14:42:06;;;;;;;;;;;7.70;83.40;;;;;;5052434;28;20321;-88
2022/12/08 14:44:33;;;;;;;;;;;7.80;83.70;;;;;;5048772;28;20059;-89